Nearby METAR Reports

 

KBUF - Buffalo/Cheektow, New York, USA
Distance from station: W 32mi, 52km
Updated: Sun, 20-Apr-2014 6:54pm EDT
Partly cloudy
Partly cloudy
 Wind from NE
Wind: NE 10 mph , 17 km/h
Temperature: 63°F , 17°C
Dew Point: 36°F , 2°C
Humidity: 37%
Barometer: 30.19 inHg , 1022.4 hPa
Clouds: Partly cloudy
Visibility: 10 miles , 16 km
Cloud details: Few Clouds 15000 ft
Partly cloudy 21000 ft
Partly cloudy 26000 ft
2014/04/20 22:54 KBUF 202254Z 04009KT 10SM FEW150 SCT210 SCT260 17/02 A3019 RMK AO2 SLP225 T01720022
KROC - Rochester, New York, USA
Distance from station: ENE 24mi, 39km
Updated: Sun, 20-Apr-2014 6:54pm EDT
Few Clouds
Few Clouds
 Wind from NNE
Wind: NNE 8 mph , 13 km/h
Temperature: 64°F , 18°C
Dew Point: 34°F , 1°C
Humidity: 32%
Barometer: 30.19 inHg , 1022.4 hPa
Clouds: Few Clouds
Visibility: 10 miles , 16 km
Cloud details: Few Clouds 25000 ft
2014/04/20 22:54 KROC 202254Z 02007KT 10SM FEW250 18/01 A3019 RMK AO2 SLP228 T01780011
 
KDSV - Dansville, New York, USA
Distance from station: SE 32mi, 52km
Updated: Sun, 20-Apr-2014 6:54pm EDT
Clear
Clear
 Wind from SSE
Wind: SSE 7 mph , 11 km/h
Temperature: 72°F , 22°C
Dew Point: 25°F , -4°C
Humidity: 17%
Barometer: 30.18 inHg , 1022 hPa
Clouds: Clear
Visibility: 10 miles , 16 km
2014/04/20 22:54 KDSV 202254Z AUTO 15006KT 10SM CLR 22/M04 A3018 RMK AO2 SLP230 T02221044
KIAG - Niagara Falls, New York, USA
Distance from station: WNW 44mi, 71km
Updated: Sun, 20-Apr-2014 6:53pm EDT
Few Clouds
Few Clouds
 Wind from ENE
Wind: ENE 9 mph , 15 km/h
Temperature: 63°F , 17°C
Dew Point: 34°F , 1°C
Humidity: 34%
Barometer: 30.19 inHg , 1022.4 hPa
Clouds: Few Clouds
Visibility: 10 miles , 16 km
Cloud details: Few Clouds 20000 ft
Few Clouds 27000 ft
2014/04/20 22:53 KIAG 202253Z 06008KT 10SM FEW200 FEW270 17/01 A3019 RMK AO2 SLP229 T01670011 $